Terminal Aerodrome Forecast
Issued by NWS

Home | Current Version | Previous Version | Text Only | Print | Product List | Glossary On
Versions: 1 2 3 4 5 6 7 8 9 10 11 12 13 14 15
000
FTUS46 KSGX 241700
TAFONT
TAF
KONT 241724Z 2418/2524 VRB04KT P6SM FEW250
     FM242100 25012KT P6SM SCT250
     FM250500 VRB05KT P6SM SCT250
     FM251100 25006KT P6SM BKN015
     FM251600 24010KT P6SM SCT035=

USA.gov is the U.S. government's official web portal to all federal, state and local government web resources and services.